createdAt,value
2017-11-27T00:01:46.335Z,4.70
2017-11-27T00:04:13.880Z,3.47
2017-11-27T00:06:41.386Z,4.03
2017-11-27T00:09:09.660Z,3.43
2017-11-27T00:11:37.991Z,4.63
2017-11-27T00:14:05.504Z,5.90
2017-11-27T00:16:33.021Z,5.40
2017-11-27T00:19:00.597Z,5.00
2017-11-27T00:21:28.118Z,5.60
2017-11-27T00:23:55.619Z,5.27
2017-11-27T00:26:23.163Z,6.93
2017-11-27T00:28:50.681Z,4.40
2017-11-27T00:31:18.183Z,4.20
2017-11-27T00:33:45.736Z,5.07
2017-11-27T00:36:13.239Z,4.77
2017-11-27T00:38:40.759Z,3.90
2017-11-27T00:41:08.775Z,3.90
2017-11-27T00:43:36.328Z,4.70
2017-11-27T00:46:04.608Z,4.80
2017-11-27T00:48:32.954Z,5.20
2017-11-27T00:51:00.468Z,6.17
2017-11-27T00:53:27.988Z,4.80
2017-11-27T00:55:55.578Z,4.70
2017-11-27T00:58:23.192Z,5.00
2017-11-27T01:00:50.689Z,6.13
2017-11-27T01:03:18.772Z,7.20
2017-11-27T01:05:46.275Z,6.10
2017-11-27T01:08:13.783Z,6.03
2017-11-27T01:10:41.371Z,5.93
2017-11-27T01:13:08.895Z,6.40
2017-11-27T01:15:36.523Z,6.37
2017-11-27T01:18:04.230Z,5.07
2017-11-27T01:20:31.754Z,4.20
2017-11-27T01:22:59.383Z,4.03
2017-11-27T01:27:59.818Z,4.57
2017-11-27T01:30:27.359Z,4.57
2017-11-27T01:32:55.479Z,4.73
2017-11-27T01:35:24.710Z,4.77
2017-11-27T01:37:52.259Z,4.73
2017-11-27T01:40:19.924Z,4.47
2017-11-27T01:42:47.522Z,3.97
2017-11-27T01:45:15.366Z,4.00
2017-11-27T01:47:42.949Z,3.35
2017-11-27T01:50:10.465Z,4.97
2017-11-27T01:52:38.078Z,4.53
2017-11-27T01:55:06.438Z,4.15
2017-11-27T01:57:33.953Z,4.72
2017-11-27T02:00:01.460Z,5.25
2017-11-27T02:02:29.016Z,5.20
2017-11-27T02:04:57.028Z,7.40
2017-11-27T02:07:24.540Z,4.10
2017-11-27T02:09:52.100Z,6.67
2017-11-27T02:12:19.609Z,4.95
2017-11-27T02:14:47.140Z,4.13
2017-11-27T02:17:15.469Z,4.20
2017-11-27T02:19:42.993Z,5.07
2017-11-27T02:22:10.526Z,4.97
2017-11-27T02:24:38.149Z,4.87
2017-11-27T02:27:05.655Z,4.77
2017-11-27T02:29:33.159Z,5.55
2017-11-27T02:32:00.948Z,5.80
2017-11-27T02:34:28.506Z,4.93
2017-11-27T02:36:56.056Z,3.87
2017-11-27T02:39:23.650Z,4.43
2017-11-27T02:41:51.160Z,4.13
2017-11-27T02:44:18.665Z,4.73
2017-11-27T02:46:46.386Z,3.60
2017-11-27T02:49:14.672Z,3.90
2017-11-27T02:51:43.676Z,4.90
2017-11-27T02:54:11.209Z,4.63
2017-11-27T02:56:38.724Z,3.90
2017-11-27T02:59:06.298Z,3.67
2017-11-27T03:01:34.175Z,3.93
2017-11-27T03:04:02.853Z,3.40
2017-11-27T03:06:31.557Z,3.83
2017-11-27T03:08:59.499Z,4.85
2017-11-27T03:11:27.477Z,3.78
2017-11-27T03:13:55.447Z,3.90
2017-11-27T03:16:23.366Z,4.70
2017-11-27T03:18:51.376Z,4.40
2017-11-27T03:21:19.737Z,5.25
2017-11-27T03:23:47.949Z,5.07
2017-11-27T03:26:15.461Z,3.70
2017-11-27T03:28:43.030Z,4.78
2017-11-27T03:31:11.181Z,4.70
2017-11-27T03:33:38.717Z,7.18
2017-11-27T03:36:07.112Z,6.78
2017-11-27T03:38:34.627Z,4.97
2017-11-27T03:41:02.136Z,5.00
2017-11-27T03:43:29.696Z,4.28
2017-11-27T03:45:57.228Z,4.77
2017-11-27T03:48:24.757Z,5.57
2017-11-27T03:50:52.304Z,5.93
2017-11-27T03:53:19.826Z,8.38
2017-11-27T03:55:47.389Z,6.25
2017-11-27T03:58:14.940Z,5.70
2017-11-27T04:00:43.254Z,4.78
2017-11-27T04:03:11.264Z,5.13
2017-11-27T04:05:38.824Z,6.40
2017-11-27T04:08:06.341Z,5.30
2017-11-27T04:10:33.924Z,5.05
2017-11-27T04:13:01.432Z,6.12
2017-11-27T04:15:28.956Z,6.37
2017-11-27T04:17:56.608Z,5.37
2017-11-27T04:20:24.136Z,6.75
2017-11-27T04:22:51.647Z,7.90
2017-11-27T04:25:19.211Z,7.60
2017-11-27T04:27:46.725Z,7.22
2017-11-27T04:30:14.255Z,7.78
2017-11-27T04:32:41.880Z,8.00
2017-11-27T04:35:09.397Z,6.87
2017-11-27T04:37:36.912Z,7.28
2017-11-27T04:40:05.224Z,7.53
2017-11-27T04:42:32.760Z,8.43
2017-11-27T04:45:00.312Z,7.80
2017-11-27T04:47:27.960Z,8.00
2017-11-27T04:49:55.473Z,9.27
2017-11-27T04:52:22.988Z,7.65
2017-11-27T04:54:50.579Z,7.30
2017-11-27T04:57:18.096Z,6.93
2017-11-27T04:59:45.716Z,9.18
2017-11-27T05:02:13.385Z,9.55
2017-11-27T05:04:40.917Z,9.20
2017-11-27T05:07:08.437Z,8.43
2017-11-27T05:09:36.501Z,8.60
2017-11-27T05:12:03.985Z,7.80
2017-11-27T05:14:31.829Z,6.45
2017-11-27T05:16:59.534Z,5.37
2017-11-27T05:19:27.149Z,6.95
2017-11-27T05:21:54.708Z,7.10
2017-11-27T05:24:22.351Z,6.90
2017-11-27T05:26:49.855Z,5.90
2017-11-27T05:29:17.408Z,5.10
2017-11-27T05:31:46.076Z,6.03
2017-11-27T05:34:14.019Z,5.00
2017-11-27T05:36:41.551Z,5.47
2017-11-27T05:39:09.115Z,5.83
2017-11-27T05:41:36.444Z,4.80
2017-11-27T05:44:03.948Z,6.73
2017-11-27T05:46:32.283Z,5.67
2017-11-27T05:48:59.880Z,4.50
2017-11-27T05:51:27.680Z,5.57
2017-11-27T05:53:55.264Z,4.17
2017-11-27T05:56:23.528Z,4.40
2017-11-27T05:58:52.220Z,3.80
2017-11-27T06:01:20.450Z,3.90
2017-11-27T06:03:48.328Z,3.80
2017-11-27T06:06:16.677Z,3.60
2017-11-27T06:08:44.176Z,5.23
2017-11-27T06:11:11.745Z,4.07
2017-11-27T06:13:39.256Z,4.37
2017-11-27T06:16:06.816Z,3.63
2017-11-27T06:18:34.393Z,4.07
2017-11-27T06:21:02.113Z,6.15
2017-11-27T06:23:29.645Z,4.70
2017-11-27T06:25:57.837Z,6.00
2017-11-27T06:28:25.343Z,6.17
2017-11-27T06:30:52.849Z,5.87
2017-11-27T06:33:21.228Z,5.27
2017-11-27T06:35:49.021Z,5.70
2017-11-27T06:38:16.519Z,3.83
2017-11-27T06:40:44.022Z,3.77
2017-11-27T06:43:12.133Z,4.60
2017-11-27T06:45:39.652Z,5.87
2017-11-27T06:48:07.392Z,6.50
2017-11-27T06:50:37.444Z,6.10
2017-11-27T06:53:05.036Z,5.05
2017-11-27T06:55:32.548Z,6.70
2017-11-27T06:58:00.149Z,7.23
2017-11-27T07:00:27.653Z,5.15
2017-11-27T07:02:55.919Z,4.82
2017-11-27T07:05:23.475Z,4.72
2017-11-27T07:07:50.988Z,5.67
2017-11-27T07:10:19.557Z,6.80
2017-11-27T07:12:47.108Z,6.22
2017-11-27T07:15:14.644Z,4.87
2017-11-27T07:17:42.148Z,5.77
2017-11-27T07:20:09.700Z,4.03
2017-11-27T07:22:37.304Z,5.10
2017-11-27T07:25:04.813Z,4.60
2017-11-27T07:27:32.463Z,5.37
2017-11-27T07:29:59.972Z,5.40
2017-11-27T07:32:28.164Z,4.72
2017-11-27T07:34:55.684Z,4.87
2017-11-27T07:37:30.688Z,5.80
2017-11-27T07:39:59.131Z,4.47
2017-11-27T07:42:26.960Z,4.10
2017-11-27T07:44:55.129Z,3.30
2017-11-27T07:47:22.935Z,4.20
2017-11-27T07:49:50.439Z,4.30
2017-11-27T07:52:18.072Z,4.00
2017-11-27T07:54:47.096Z,5.83
2017-11-27T07:57:15.463Z,3.30
2017-11-27T07:59:43.437Z,4.93
2017-11-27T08:02:10.962Z,6.17
2017-11-27T08:04:38.629Z,4.03
2017-11-27T08:07:06.136Z,4.20
2017-11-27T08:09:33.640Z,3.47
2017-11-27T08:12:01.188Z,2.37
2017-11-27T08:14:28.687Z,3.43
2017-11-27T08:16:56.262Z,3.30
2017-11-27T08:19:23.815Z,3.62
2017-11-27T08:21:51.325Z,3.40
2017-11-27T08:24:18.828Z,3.50
2017-11-27T08:26:47.147Z,2.93
2017-11-27T08:29:14.652Z,3.50
2017-11-27T08:31:42.149Z,3.20
2017-11-27T08:34:10.012Z,3.13
2017-11-27T08:36:37.516Z,2.77
2017-11-27T08:39:05.024Z,3.60
2017-11-27T08:41:33.005Z,2.57
2017-11-27T08:44:00.508Z,2.27
2017-11-27T08:46:28.012Z,2.77
2017-11-27T08:48:55.615Z,3.00
2017-11-27T08:51:23.120Z,2.40
2017-11-27T08:53:50.620Z,1.90
2017-11-27T08:56:18.164Z,2.37
2017-11-27T08:58:45.811Z,2.90
2017-11-27T09:01:13.352Z,2.90
2017-11-27T09:03:41.668Z,3.47
2017-11-27T09:06:09.173Z,2.80
2017-11-27T09:08:36.674Z,2.53
2017-11-27T09:11:04.428Z,2.80
2017-11-27T09:13:31.931Z,3.33
2017-11-27T09:15:59.429Z,1.97
2017-11-27T09:18:26.990Z,2.00
2017-11-27T09:20:55.621Z,2.17
2017-11-27T09:23:23.152Z,2.70
2017-11-27T09:25:50.765Z,2.70
2017-11-27T09:28:18.268Z,2.13
2017-11-27T09:30:45.773Z,1.97
2017-11-27T09:33:13.312Z,2.50
2017-11-27T09:35:40.808Z,2.20
2017-11-27T09:38:08.302Z,2.60
2017-11-27T09:40:35.855Z,2.13
2017-11-27T09:43:03.351Z,2.57
2017-11-27T09:45:30.860Z,2.23
2017-11-27T09:47:59.585Z,2.20
2017-11-27T09:50:27.103Z,2.50
2017-11-27T09:52:54.613Z,2.10
2017-11-27T09:55:22.149Z,2.77
2017-11-27T09:57:49.654Z,1.90
2017-11-27T10:00:19.041Z,2.23
2017-11-27T10:02:46.618Z,1.97
2017-11-27T10:05:14.142Z,2.70
2017-11-27T10:07:41.646Z,1.90
2017-11-27T10:10:09.222Z,2.10
2017-11-27T10:12:36.742Z,2.70
2017-11-27T10:15:04.244Z,1.87
2017-11-27T10:17:31.803Z,1.57
2017-11-27T10:19:59.376Z,1.60
2017-11-27T10:22:27.141Z,2.27
2017-11-27T10:24:54.683Z,2.23
2017-11-27T10:27:22.180Z,2.20
2017-11-27T10:29:49.676Z,2.30
2017-11-27T10:32:17.667Z,2.03
2017-11-27T10:34:45.302Z,2.33
2017-11-27T10:37:12.820Z,2.00
2017-11-27T10:39:40.516Z,2.50
2017-11-27T10:42:08.016Z,2.50
2017-11-27T10:44:35.548Z,2.33
2017-11-27T10:47:03.103Z,2.20
2017-11-27T10:49:32.192Z,2.30
2017-11-27T10:51:59.718Z,3.27
2017-11-27T10:54:27.277Z,3.00
2017-11-27T10:56:54.793Z,2.20
2017-11-27T10:59:22.327Z,2.30
2017-11-27T11:01:49.864Z,2.40
2017-11-27T11:04:17.574Z,2.70
2017-11-27T11:06:45.468Z,2.53
2017-11-27T11:09:13.468Z,2.20
2017-11-27T11:11:41.871Z,2.27
2017-11-27T11:14:09.382Z,2.47
2017-11-27T11:16:37.008Z,3.17
2017-11-27T11:19:04.510Z,2.30
2017-11-27T11:21:32.024Z,2.30
2017-11-27T11:23:59.621Z,2.20
2017-11-27T11:26:28.149Z,2.03
2017-11-27T11:28:55.673Z,1.80
2017-11-27T11:31:23.192Z,2.20
2017-11-27T11:33:50.768Z,1.97
2017-11-27T11:36:18.272Z,2.13
2017-11-27T11:38:45.777Z,2.23
2017-11-27T11:41:13.234Z,2.13
2017-11-27T11:43:40.740Z,1.90
2017-11-27T11:46:08.288Z,2.90
2017-11-27T11:48:35.844Z,2.30
2017-11-27T11:51:03.344Z,2.67
2017-11-27T11:53:30.867Z,2.70
2017-11-27T11:55:58.729Z,2.57
2017-11-27T11:58:26.328Z,2.73
2017-11-27T12:00:53.845Z,1.90
2017-11-27T12:03:21.512Z,2.20
2017-11-27T12:05:49.012Z,2.67
2017-11-27T12:08:16.512Z,1.93
2017-11-27T12:10:44.069Z,2.30
2017-11-27T12:13:11.570Z,1.90
2017-11-27T12:15:39.576Z,3.17
2017-11-27T12:18:07.156Z,3.00
2017-11-27T12:20:34.664Z,5.60
2017-11-27T12:23:02.181Z,2.53
2017-11-27T12:25:30.232Z,4.17
2017-11-27T12:27:57.736Z,3.20
2017-11-27T12:30:25.260Z,3.00
2017-11-27T12:32:54.031Z,1.90
2017-11-27T12:35:21.532Z,2.50
2017-11-27T12:37:49.032Z,2.10
2017-11-27T12:40:16.600Z,2.20
2017-11-27T12:42:44.529Z,2.53
2017-11-27T12:45:12.033Z,2.40
2017-11-27T12:47:40.460Z,2.20
2017-11-27T12:50:07.959Z,2.03
2017-11-27T12:52:35.775Z,1.57
2017-11-27T12:55:03.299Z,1.80
2017-11-27T12:57:31.084Z,1.80
2017-11-27T12:59:58.860Z,2.20
2017-11-27T13:02:27.324Z,2.10
2017-11-27T13:04:54.967Z,2.10
2017-11-27T13:07:22.873Z,2.00
2017-11-27T13:09:51.964Z,2.50
2017-11-27T13:12:19.507Z,2.10
2017-11-27T13:14:47.237Z,1.80
2017-11-27T13:17:14.740Z,2.03
2017-11-27T13:19:42.240Z,2.30
2017-11-27T13:22:10.390Z,1.70
2017-11-27T13:24:37.952Z,1.97
2017-11-27T13:27:05.808Z,2.20
2017-11-27T13:29:33.468Z,1.63
2017-11-27T13:32:00.962Z,1.90
2017-11-27T13:34:28.495Z,1.87
2017-11-27T13:36:56.749Z,2.20
2017-11-27T13:39:24.275Z,1.70
2017-11-27T13:41:52.539Z,2.50
2017-11-27T13:44:20.087Z,3.30
2017-11-27T13:46:47.593Z,4.50
2017-11-27T13:49:15.202Z,2.87
2017-11-27T13:51:42.797Z,1.90
2017-11-27T13:54:11.072Z,2.43
2017-11-27T13:56:39.684Z,2.17
2017-11-27T13:59:07.245Z,2.13
2017-11-27T14:01:34.757Z,3.17
2017-11-27T14:04:02.269Z,2.13
2017-11-27T14:06:29.827Z,2.07
2017-11-27T14:08:57.329Z,1.97
2017-11-27T14:11:24.836Z,1.90
2017-11-27T14:13:52.716Z,4.23
2017-11-27T14:16:20.226Z,1.80
2017-11-27T14:18:47.752Z,2.20
2017-11-27T14:21:15.305Z,2.00
2017-11-27T14:23:42.893Z,2.17
2017-11-27T14:26:10.400Z,2.20
2017-11-27T14:28:37.961Z,2.00
2017-11-27T14:31:05.472Z,2.57
2017-11-27T14:33:34.364Z,2.27
2017-11-27T14:36:01.937Z,3.40
2017-11-27T14:38:29.449Z,3.83
2017-11-27T14:40:57.272Z,3.00
2017-11-27T14:43:24.846Z,4.00
2017-11-27T14:45:52.633Z,2.17
2017-11-27T14:48:20.271Z,2.87
2017-11-27T14:50:48.089Z,2.70
2017-11-27T14:53:15.718Z,2.87
2017-11-27T14:55:43.220Z,2.37
2017-11-27T14:58:12.024Z,2.10
2017-11-27T15:00:39.541Z,1.90
2017-11-27T15:03:07.040Z,1.90
2017-11-27T15:05:35.464Z,1.90
2017-11-27T15:08:03.012Z,2.43
2017-11-27T15:10:30.705Z,2.03
2017-11-27T15:12:58.204Z,2.30
2017-11-27T15:15:25.628Z,2.00
2017-11-27T15:17:53.337Z,1.87
2017-11-27T15:20:21.169Z,2.73
2017-11-27T15:22:49.096Z,1.90
2017-11-27T15:25:17.116Z,2.23
2017-11-27T15:27:45.641Z,2.20
2017-11-27T15:30:12.978Z,2.40
2017-11-27T15:32:40.520Z,1.63
2017-11-27T15:35:08.048Z,1.80
2017-11-27T15:37:35.624Z,2.43
2017-11-27T15:40:03.528Z,4.60
2017-11-27T15:42:32.079Z,3.17
2017-11-27T15:44:59.899Z,2.30
2017-11-27T15:47:27.908Z,2.23
2017-11-27T15:49:55.754Z,2.93
2017-11-27T15:52:23.812Z,2.73
2017-11-27T15:54:52.349Z,2.50
2017-11-27T15:57:20.901Z,2.43
2017-11-27T15:59:48.500Z,2.70
2017-11-27T16:02:16.221Z,2.10
2017-11-27T16:04:44.908Z,2.50
2017-11-27T16:07:12.920Z,2.57
2017-11-27T16:09:40.515Z,3.53
2017-11-27T16:12:08.651Z,4.53
2017-11-27T16:14:37.218Z,3.13
2017-11-27T16:17:04.744Z,2.10
2017-11-27T16:19:32.624Z,2.60
2017-11-27T16:22:01.193Z,2.17
2017-11-27T16:24:28.664Z,2.10
2017-11-27T16:26:56.608Z,2.20
2017-11-27T16:29:24.779Z,1.70
2017-11-27T16:31:53.056Z,2.60
2017-11-27T16:34:21.676Z,2.63
2017-11-27T16:36:50.006Z,2.00
2017-11-27T16:39:19.016Z,2.27
2017-11-27T16:41:46.539Z,1.60
2017-11-27T16:44:14.092Z,2.23
2017-11-27T16:46:42.404Z,2.30
2017-11-27T16:49:09.904Z,2.00
2017-11-27T16:51:37.476Z,1.70
2017-11-27T16:54:05.028Z,1.80
2017-11-27T16:56:33.484Z,2.50
2017-11-27T16:59:01.176Z,1.37
2017-11-27T17:01:29.122Z,2.53
2017-11-27T17:03:57.012Z,2.00
2017-11-27T17:06:24.959Z,2.13
2017-11-27T17:08:52.929Z,2.17
2017-11-27T17:11:20.970Z,2.00
2017-11-27T17:13:49.256Z,1.83
2017-11-27T17:16:16.848Z,2.00
2017-11-27T17:18:45.512Z,2.00
2017-11-27T17:21:13.068Z,2.70
2017-11-27T17:23:41.136Z,2.53
2017-11-27T17:26:08.658Z,1.90
2017-11-27T17:28:37.011Z,3.37
2017-11-27T17:31:04.541Z,2.30
2017-11-27T17:33:32.312Z,2.37
2017-11-27T17:36:00.453Z,2.00
2017-11-27T17:38:27.952Z,2.37
2017-11-27T17:40:55.489Z,1.80
2017-11-27T17:43:24.413Z,1.97
2017-11-27T17:45:51.917Z,1.60
2017-11-27T17:48:19.447Z,1.60
2017-11-27T17:50:47.721Z,1.93
2017-11-27T17:56:07.954Z,1.73
2017-11-27T17:58:36.454Z,1.60
2017-11-27T18:01:03.952Z,1.60
2017-11-27T18:03:32.403Z,1.40
2017-11-27T18:05:59.956Z,2.00
2017-11-27T18:08:27.457Z,1.87
2017-11-27T18:10:55.169Z,1.80
2017-11-27T18:13:22.812Z,2.23
2017-11-27T18:15:50.307Z,1.70
2017-11-27T18:18:17.940Z,2.20
2017-11-27T18:20:45.376Z,2.10
2017-11-27T18:23:12.914Z,1.93
2017-11-27T18:25:40.426Z,1.70
2017-11-27T18:28:07.973Z,1.60
2017-11-27T18:30:36.092Z,1.50
2017-11-27T18:33:03.880Z,1.53
2017-11-27T18:35:31.520Z,1.40
2017-11-27T18:37:59.236Z,1.40
2017-11-27T18:40:27.066Z,1.83
2017-11-27T18:42:54.646Z,1.77
2017-11-27T18:45:22.972Z,1.80
2017-11-27T18:47:50.668Z,1.23
2017-11-27T18:50:18.188Z,1.50
2017-11-27T18:52:45.691Z,1.30
2017-11-27T18:55:14.029Z,1.70
2017-11-27T18:57:41.733Z,1.37
2017-11-27T19:00:09.262Z,1.77
2017-11-27T19:02:36.805Z,2.23
2017-11-27T19:05:05.069Z,2.30
2017-11-27T19:07:33.331Z,1.83
2017-11-27T19:10:00.275Z,1.67
2017-11-27T19:12:27.989Z,1.70
2017-11-27T19:14:55.073Z,1.40
2017-11-27T19:17:23.345Z,1.57
2017-11-27T19:19:51.684Z,1.63
2017-11-27T19:22:19.185Z,2.00
2017-11-27T19:24:46.686Z,2.30
2017-11-27T19:27:14.235Z,1.53
2017-11-27T19:29:41.733Z,1.57
2017-11-27T19:32:09.242Z,1.97
2017-11-27T19:34:36.816Z,3.27
2017-11-27T19:37:04.333Z,2.10
2017-11-27T19:39:31.836Z,1.27
2017-11-27T19:41:59.459Z,2.17
2017-11-27T19:44:26.960Z,1.40
2017-11-27T19:46:54.462Z,1.63
2017-11-27T19:49:22.888Z,1.20
2017-11-27T19:51:50.393Z,2.30
2017-11-27T19:54:17.900Z,1.67
2017-11-27T19:56:45.744Z,1.47
2017-11-27T19:59:13.245Z,1.87
2017-11-27T20:01:40.752Z,1.87
2017-11-27T20:04:08.228Z,2.30
2017-11-27T20:06:35.741Z,2.00
2017-11-27T20:09:03.240Z,1.97
2017-11-27T20:11:30.784Z,1.70
2017-11-27T20:13:58.289Z,1.33
2017-11-27T20:16:25.789Z,1.43
2017-11-27T20:18:54.128Z,1.10
2017-11-27T20:21:21.816Z,1.80
2017-11-27T20:23:49.348Z,1.73
2017-11-27T20:26:16.863Z,1.73
2017-11-27T20:28:45.204Z,2.03
2017-11-27T20:31:12.704Z,1.30
2017-11-27T20:33:40.420Z,1.67
2017-11-27T20:36:07.936Z,1.60
2017-11-27T20:38:35.528Z,1.73
2017-11-27T20:41:03.192Z,2.83
2017-11-27T20:43:30.699Z,1.93
2017-11-27T20:45:58.965Z,1.80
2017-11-27T20:48:26.488Z,1.53
2017-11-27T20:50:53.984Z,1.40
2017-11-27T20:53:21.664Z,1.73
2017-11-27T20:55:49.219Z,1.07
2017-11-27T20:58:17.505Z,1.97
2017-11-27T21:00:45.102Z,1.33
2017-11-27T21:03:12.599Z,1.70
2017-11-27T21:05:40.869Z,1.80
2017-11-27T21:08:09.277Z,1.43
2017-11-27T21:10:36.791Z,1.80
2017-11-27T21:13:04.296Z,1.40
2017-11-27T21:15:31.841Z,1.50
2017-11-27T21:17:59.360Z,1.10
2017-11-27T21:20:26.917Z,1.77
2017-11-27T21:22:54.444Z,0.90
2017-11-27T21:25:22.005Z,1.50
2017-11-27T21:27:49.569Z,1.50
2017-11-27T21:30:17.073Z,1.80
2017-11-27T21:32:44.771Z,1.83
2017-11-27T21:35:12.273Z,1.20
2017-11-27T21:37:40.808Z,1.60
2017-11-27T21:40:08.320Z,1.63
2017-11-27T21:42:35.819Z,1.30
2017-11-27T21:45:04.233Z,1.30
2017-11-27T21:47:32.705Z,1.30
2017-11-27T21:50:01.015Z,1.57
2017-11-27T21:52:28.641Z,1.40
2017-11-27T21:54:56.805Z,1.50
2017-11-27T21:57:24.344Z,1.40
2017-11-27T21:59:52.877Z,1.10
2017-11-27T22:02:20.389Z,1.27
2017-11-27T22:04:47.912Z,1.20
2017-11-27T22:07:15.441Z,1.50
2017-11-27T22:09:43.168Z,1.30
2017-11-27T22:12:12.387Z,1.37
2017-11-27T22:14:40.560Z,1.33
2017-11-27T22:17:08.318Z,1.53
2017-11-27T22:19:35.916Z,1.77
2017-11-27T22:22:03.433Z,1.20
2017-11-27T22:24:31.580Z,2.17
2017-11-27T22:26:59.126Z,1.13
2017-11-27T22:29:26.633Z,1.50
2017-11-27T22:31:54.420Z,1.60
2017-11-27T22:34:21.945Z,1.30
2017-11-27T22:36:49.684Z,1.60
2017-11-27T22:39:17.253Z,1.73
2017-11-27T22:41:45.160Z,1.40
2017-11-27T22:44:12.668Z,1.20
2017-11-27T22:46:40.841Z,1.60
2017-11-27T22:49:08.364Z,1.40
2017-11-27T22:51:35.867Z,1.40
2017-11-27T22:54:03.425Z,1.70
2017-11-27T22:56:30.930Z,1.30
2017-11-27T22:58:58.437Z,1.40
2017-11-27T23:01:26.381Z,1.20
2017-11-27T23:03:53.883Z,2.00
2017-11-27T23:06:22.007Z,1.10
2017-11-27T23:08:49.505Z,1.57
2017-11-27T23:11:17.030Z,1.20
2017-11-27T23:13:44.586Z,2.20
2017-11-27T23:16:12.124Z,1.30
2017-11-27T23:18:39.681Z,1.40
2017-11-27T23:21:07.589Z,1.53
2017-11-27T23:23:35.125Z,1.17
2017-11-27T23:26:02.620Z,1.10
2017-11-27T23:28:30.180Z,1.10
2017-11-27T23:30:57.807Z,1.20
2017-11-27T23:33:25.320Z,1.23
2017-11-27T23:35:52.899Z,1.83
2017-11-27T23:38:20.507Z,1.10
2017-11-27T23:40:48.005Z,1.10
2017-11-27T23:43:15.548Z,1.20
2017-11-27T23:45:43.855Z,1.13
2017-11-27T23:48:11.355Z,1.10
2017-11-27T23:50:39.085Z,1.10
2017-11-27T23:53:06.585Z,1.00
2017-11-27T23:55:34.308Z,1.10
2017-11-27T23:58:01.845Z,1.00
